Time;durP1;ratioP1;P1;durP2;ratioP2;P2;SDS_P1;SDS_P2;PMS_P1;PMS_P2;Temp;Humidity;BMP_temperature;BMP_pressure;BME280_temperature;BME280_humidity;BME280_pressure;Samples;Min_cycle;Max_cycle;Signal;HPM_P1;HPM_P2
2023/01/08 00:01:54;;;;;;;1.57;1.47;;;;;;;;;;4958663;28;20199;-91
2023/01/08 00:04:26;;;;;;;5.07;1.23;;;;;;;;;;4958516;29;20258;-88
2023/01/08 00:07:03;;;;;;;0.97;0.83;;;;;;;;;;4957236;29;20206;-90
2023/01/08 00:09:35;;;;;;;2.13;1.93;;;;;;;;;;4957367;29;20233;-90
2023/01/08 00:12:06;;;;;;;8.80;1.40;;;;;;;;;;4957583;29;20305;-89
2023/01/08 00:14:36;;;;;;;2.43;1.27;;;;;;;;;;4955406;29;20194;-91
2023/01/08 00:17:04;;;;;;;1.27;1.03;;;;;;;;;;4956057;29;20637;-89
2023/01/08 00:19:33;;;;;;;1.27;1.17;;;;;;;;;;4956283;29;20210;-88
2023/01/08 00:22:01;;;;;;;0.93;0.93;;;;;;;;;;4955778;28;20250;-89
2023/01/08 00:24:30;;;;;;;9.23;1.40;;;;;;;;;;4955096;29;20265;-90
2023/01/08 00:27:00;;;;;;;2.47;1.23;;;;;;;;;;4955429;29;20202;-89
2023/01/08 00:29:29;;;;;;;1.90;1.80;;;;;;;;;;4955309;29;20214;-90
2023/01/08 00:31:57;;;;;;;0.40;0.40;;;;;;;;;;4947044;29;20221;-90
2023/01/08 00:34:25;;;;;;;1.10;1.10;;;;;;;;;;4936161;29;20204;-90
2023/01/08 00:36:52;;;;;;;2.63;1.60;;;;;;;;;;4937111;29;20210;-90
2023/01/08 00:39:20;;;;;;;1.53;1.53;;;;;;;;;;4937493;29;20243;-90
2023/01/08 00:41:48;;;;;;;2.93;1.50;;;;;;;;;;4936943;29;20208;-91
2023/01/08 00:44:17;;;;;;;3.23;1.70;;;;;;;;;;4936779;29;20316;-90
2023/01/08 00:46:44;;;;;;;2.53;2.43;;;;;;;;;;4938128;29;20210;-88
2023/01/08 00:49:12;;;;;;;1.07;1.07;;;;;;;;;;4936352;29;20679;-90
2023/01/08 00:51:39;;;;;;;4.73;3.27;;;;;;;;;;4935204;29;20699;-90
2023/01/08 00:54:08;;;;;;;0.63;0.63;;;;;;;;;;4935091;29;20631;-90
2023/01/08 00:56:36;;;;;;;8.73;1.93;;;;;;;;;;4935004;29;20404;-90
2023/01/08 00:59:03;;;;;;;2.83;2.07;;;;;;;;;;4936216;29;20689;-89
2023/01/08 01:01:32;;;;;;;1.73;1.73;;;;;;;;;;4943932;29;20278;-89
2023/01/08 01:03:59;;;;;;;1.17;0.70;;;;;;;;;;4953536;29;20231;-90
2023/01/08 01:06:27;;;;;;;0.67;0.57;;;;;;;;;;4945610;29;20203;-90
2023/01/08 01:08:56;;;;;;;2.03;1.43;;;;;;;;;;4950292;29;20214;-89
2023/01/08 01:11:28;;;;;;;2.53;2.43;;;;;;;;;;4956633;28;20199;-87
2023/01/08 01:13:56;;;;;;;3.07;1.67;;;;;;;;;;4939967;29;20191;-90
2023/01/08 01:16:26;;;;;;;0.97;0.97;;;;;;;;;;4935307;29;20291;-90
2023/01/08 01:18:57;;;;;;;8.97;1.40;;;;;;;;;;4942106;29;20199;-88
2023/01/08 01:21:25;;;;;;;2.57;2.27;;;;;;;;;;4943187;29;20246;-90
2023/01/08 01:23:53;;;;;;;0.53;0.53;;;;;;;;;;4933521;29;20712;-88
2023/01/08 01:26:21;;;;;;;3.37;1.43;;;;;;;;;;4933938;29;20206;-91
2023/01/08 01:28:49;;;;;;;1.70;0.90;;;;;;;;;;4951338;28;20199;-89
2023/01/08 01:31:17;;;;;;;1.60;1.47;;;;;;;;;;4948002;28;20211;-89
2023/01/08 01:33:50;;;;;;;1.47;1.40;;;;;;;;;;4934141;29;20201;-88
2023/01/08 01:36:22;;;;;;;0.97;0.37;;;;;;;;;;4934760;29;20278;-90
2023/01/08 01:38:55;;;;;;;1.10;1.10;;;;;;;;;;4934264;29;20533;-90
2023/01/08 01:41:25;;;;;;;1.10;1.10;;;;;;;;;;4933376;29;20211;-89
2023/01/08 01:43:59;;;;;;;0.33;0.33;;;;;;;;;;4933654;29;20531;-90
2023/01/08 01:46:35;;;;;;;0.47;0.47;;;;;;;;;;4951919;29;20338;-89
2023/01/08 01:49:05;;;;;;;0.37;0.37;;;;;;;;;;4953711;29;20273;-90
2023/01/08 01:51:38;;;;;;;1.33;1.33;;;;;;;;;;4952825;29;20297;-89
2023/01/08 01:54:08;;;;;;;1.50;0.53;;;;;;;;;;4943765;28;20238;-89
2023/01/08 01:56:40;;;;;;;1.03;0.97;;;;;;;;;;4953482;28;20210;-89
2023/01/08 01:59:12;;;;;;;1.17;1.07;;;;;;;;;;4953705;29;20270;-88
2023/01/08 02:01:41;;;;;;;0.30;0.30;;;;;;;;;;4944778;28;20680;-89
2023/01/08 02:04:09;;;;;;;0.63;0.63;;;;;;;;;;4934688;29;20258;-89
2023/01/08 02:06:41;;;;;;;0.63;0.63;;;;;;;;;;4935418;29;20217;-88
2023/01/08 02:09:14;;;;;;;1.97;1.73;;;;;;;;;;4936057;29;20227;-89
2023/01/08 02:12:15;;;;;;;1.20;0.70;;;;;;;;;;4934748;29;20623;-88
2023/01/08 02:14:39;;;;;;;1.77;1.67;;;;;;;;;;4931565;29;20701;-91
2023/01/08 02:17:09;;;;;;;3.93;1.77;;;;;;;;;;4936433;29;20215;-89
2023/01/08 02:19:40;;;;;;;0.30;0.27;;;;;;;;;;4934295;29;20204;-90
2023/01/08 02:22:17;;;;;;;1.37;0.63;;;;;;;;;;4934665;29;20775;-90
2023/01/08 02:24:49;;;;;;;0.40;0.40;;;;;;;;;;4933910;29;20234;-88
2023/01/08 02:27:19;;;;;;;0.53;0.37;;;;;;;;;;4933795;29;20286;-90
2023/01/08 02:29:50;;;;;;;1.10;1.10;;;;;;;;;;4932840;29;20318;-90
2023/01/08 02:32:19;;;;;;;6.97;1.77;;;;;;;;;;4934187;28;20298;-90
2023/01/08 02:34:47;;;;;;;0.43;0.43;;;;;;;;;;4934325;29;20286;-91
2023/01/08 02:37:17;;;;;;;0.87;0.87;;;;;;;;;;4934102;29;20697;-90
2023/01/08 02:40:08;;;;;;;4.40;1.50;;;;;;;;;;4934994;29;20203;-89
2023/01/08 02:42:52;;;;;;;0.40;0.40;;;;;;;;;;4933954;28;20218;-91
2023/01/08 02:45:33;;;;;;;6.63;2.27;;;;;;;;;;4935715;29;20219;-90
2023/01/08 02:48:07;;;;;;;0.67;0.67;;;;;;;;;;4933755;29;20320;-91
2023/01/08 02:50:36;;;;;;;0.63;0.63;;;;;;;;;;4932337;29;20203;-90
2023/01/08 02:53:07;;;;;;;2.93;0.90;;;;;;;;;;4933487;29;20290;-91
2023/01/08 02:55:36;;;;;;;0.83;0.80;;;;;;;;;;4932935;29;20222;-91
2023/01/08 02:58:03;;;;;;;7.67;1.53;;;;;;;;;;4933982;29;20204;-90
2023/01/08 03:00:33;;;;;;;0.70;0.70;;;;;;;;;;4935093;29;20223;-90
2023/01/08 03:03:07;;;;;;;6.10;0.90;;;;;;;;;;4952451;28;20238;-91
2023/01/08 03:05:35;;;;;;;0.30;0.30;;;;;;;;;;4962376;28;20230;-87
2023/01/08 03:08:06;;;;;;;0.87;0.87;;;;;;;;;;4966042;29;20211;-90
2023/01/08 03:10:42;;;;;;;0.17;0.17;;;;;;;;;;4944463;29;20285;-89
2023/01/08 03:13:18;;;;;;;0.30;0.30;;;;;;;;;;4943171;29;20203;-90
2023/01/08 03:15:50;;;;;;;6.93;1.40;;;;;;;;;;4954106;29;20289;-89
2023/01/08 03:18:23;;;;;;;0.93;0.50;;;;;;;;;;4956530;29;20220;-89
2023/01/08 03:20:53;;;;;;;0.40;0.40;;;;;;;;;;4951961;29;20236;-88
2023/01/08 03:23:29;;;;;;;1.00;0.70;;;;;;;;;;4938344;29;20267;-88
2023/01/08 03:25:58;;;;;;;0.57;0.50;;;;;;;;;;4936797;29;20257;-90
2023/01/08 03:28:36;;;;;;;0.40;0.40;;;;;;;;;;4938122;29;20328;-91
2023/01/08 03:31:11;;;;;;;0.87;0.40;;;;;;;;;;4936776;29;20279;-90
2023/01/08 03:33:45;;;;;;;1.20;1.20;;;;;;;;;;4936636;29;20719;-89
2023/01/08 03:36:23;;;;;;;0.43;0.43;;;;;;;;;;4947006;29;20282;-86
2023/01/08 03:38:56;;;;;;;1.03;0.90;;;;;;;;;;4945557;29;20310;-89
2023/01/08 03:41:24;;;;;;;0.30;0.30;;;;;;;;;;4946264;29;20213;-90
2023/01/08 03:43:52;;;;;;;0.30;0.30;;;;;;;;;;4955960;29;20230;-88
2023/01/08 03:46:23;;;;;;;0.57;0.57;;;;;;;;;;4944194;29;20249;-89
2023/01/08 03:48:52;;;;;;;0.93;0.93;;;;;;;;;;4945081;29;20198;-90
2023/01/08 03:51:22;;;;;;;0.73;0.73;;;;;;;;;;4955398;29;20739;-90
2023/01/08 03:53:50;;;;;;;0.77;0.77;;;;;;;;;;4960162;29;20230;-89
2023/01/08 03:56:18;;;;;;;0.20;0.20;;;;;;;;;;4958137;29;20213;-90
2023/01/08 03:58:45;;;;;;;0.60;0.60;;;;;;;;;;4956389;29;20210;-90
2023/01/08 04:01:15;;;;;;;0.80;0.80;;;;;;;;;;4956733;29;20198;-89
2023/01/08 04:03:48;;;;;;;0.97;0.97;;;;;;;;;;4956881;29;20266;-89
2023/01/08 04:06:16;;;;;;;0.63;0.63;;;;;;;;;;4956855;29;20302;-89
2023/01/08 04:08:47;;;;;;;0.77;0.77;;;;;;;;;;4956800;29;20222;-90
2023/01/08 04:11:15;;;;;;;1.40;1.03;;;;;;;;;;4955424;29;20258;-89
2023/01/08 04:13:42;;;;;;;0.60;0.60;;;;;;;;;;4955861;29;20274;-90
2023/01/08 04:16:10;;;;;;;0.80;0.47;;;;;;;;;;4956986;28;20207;-89
2023/01/08 04:18:38;;;;;;;0.50;0.50;;;;;;;;;;4955695;29;20214;-87
2023/01/08 04:21:08;;;;;;;2.93;1.50;;;;;;;;;;4958922;29;20648;-90
2023/01/08 04:23:36;;;;;;;0.50;0.50;;;;;;;;;;4957176;29;20215;-90
2023/01/08 04:26:05;;;;;;;0.43;0.30;;;;;;;;;;4938674;28;20239;-89
2023/01/08 04:28:32;;;;;;;0.20;0.20;;;;;;;;;;4936194;29;20323;-89
2023/01/08 04:31:00;;;;;;;0.63;0.63;;;;;;;;;;4936228;29;20246;-89
2023/01/08 04:33:27;;;;;;;0.30;0.30;;;;;;;;;;4936612;29;20255;-87
2023/01/08 04:35:55;;;;;;;0.30;0.30;;;;;;;;;;4935591;29;20204;-88
2023/01/08 04:38:25;;;;;;;0.90;0.90;;;;;;;;;;4935697;29;20202;-88
2023/01/08 04:40:56;;;;;;;0.33;0.33;;;;;;;;;;4934203;29;20277;-88
2023/01/08 04:43:24;;;;;;;0.30;0.30;;;;;;;;;;4935163;29;20760;-90
2023/01/08 04:46:22;;;;;;;0.50;0.50;;;;;;;;;;4935740;29;20295;-88
2023/01/08 04:48:50;;;;;;;0.30;0.30;;;;;;;;;;4927177;29;20218;-89
2023/01/08 04:51:20;;;;;;;1.43;0.50;;;;;;;;;;4936255;29;20195;-88
2023/01/08 04:53:49;;;;;;;4.17;1.13;;;;;;;;;;4936562;29;20226;-90
2023/01/08 04:56:16;;;;;;;1.43;0.70;;;;;;;;;;4960506;28;20278;-89
2023/01/08 04:58:46;;;;;;;0.97;0.80;;;;;;;;;;4958229;29;20649;-89
2023/01/08 05:01:15;;;;;;;0.50;0.50;;;;;;;;;;4956471;29;20203;-89
2023/01/08 05:03:43;;;;;;;0.70;0.70;;;;;;;;;;4956710;29;20271;-89
2023/01/08 05:06:14;;;;;;;1.90;1.33;;;;;;;;;;4956302;29;20258;-90
2023/01/08 05:08:42;;;;;;;0.37;0.37;;;;;;;;;;4957081;29;20285;-88
2023/01/08 05:11:11;;;;;;;0.90;0.90;;;;;;;;;;4955241;29;20615;-89
2023/01/08 05:13:39;;;;;;;0.50;0.50;;;;;;;;;;4970591;29;20270;-89
2023/01/08 05:16:10;;;;;;;0.83;0.83;;;;;;;;;;4961145;29;20202;-90
2023/01/08 05:18:38;;;;;;;0.23;0.23;;;;;;;;;;4956084;29;20194;-88
2023/01/08 05:21:10;;;;;;;2.30;2.00;;;;;;;;;;4956271;28;20202;-89
2023/01/08 05:23:38;;;;;;;0.97;0.97;;;;;;;;;;4955985;29;20697;-89
2023/01/08 05:26:06;;;;;;;1.03;0.97;;;;;;;;;;4936958;29;20227;-89
2023/01/08 05:28:36;;;;;;;0.30;0.30;;;;;;;;;;4935846;29;20223;-89
2023/01/08 05:31:05;;;;;;;1.90;0.93;;;;;;;;;;4936150;29;20215;-90
2023/01/08 05:33:36;;;;;;;0.87;0.80;;;;;;;;;;4935605;29;20298;-90
2023/01/08 05:36:04;;;;;;;1.60;1.37;;;;;;;;;;4935540;29;20199;-91
2023/01/08 05:38:32;;;;;;;0.70;0.70;;;;;;;;;;4935178;29;20209;-91
2023/01/08 05:41:00;;;;;;;1.07;0.63;;;;;;;;;;4934853;29;20290;-89
2023/01/08 05:43:27;;;;;;;0.63;0.63;;;;;;;;;;4934508;29;20251;-89
2023/01/08 05:46:02;;;;;;;2.63;0.70;;;;;;;;;;4934379;29;20243;-89
2023/01/08 05:48:30;;;;;;;0.87;0.87;;;;;;;;;;4936021;29;20211;-90
2023/01/08 05:50:58;;;;;;;0.70;0.70;;;;;;;;;;4936225;29;20579;-90
2023/01/08 05:53:26;;;;;;;0.73;0.73;;;;;;;;;;4953914;29;20194;-88
2023/01/08 05:56:01;;;;;;;0.80;0.80;;;;;;;;;;4949094;29;20206;-89
2023/01/08 05:58:29;;;;;;;1.00;1.00;;;;;;;;;;4951832;29;20221;-89
2023/01/08 06:01:06;;;;;;;0.83;0.83;;;;;;;;;;4954070;29;20206;-89
2023/01/08 06:03:34;;;;;;;0.43;0.43;;;;;;;;;;4954375;29;20306;-90
2023/01/08 06:06:03;;;;;;;0.43;0.43;;;;;;;;;;4954878;28;20262;-90
2023/01/08 06:08:30;;;;;;;2.53;0.90;;;;;;;;;;4955463;29;20218;-90
2023/01/08 06:11:01;;;;;;;3.83;0.90;;;;;;;;;;4954714;29;20285;-89
2023/01/08 06:13:30;;;;;;;0.63;0.63;;;;;;;;;;4954865;29;20226;-90
2023/01/08 06:15:59;;;;;;;0.57;0.57;;;;;;;;;;4956715;29;20206;-89
2023/01/08 06:18:30;;;;;;;0.90;0.90;;;;;;;;;;4953779;29;20234;-89
2023/01/08 06:20:57;;;;;;;0.97;0.93;;;;;;;;;;4955317;29;20199;-90
2023/01/08 06:23:37;;;;;;;3.83;1.10;;;;;;;;;;4956867;28;20289;-88
2023/01/08 06:26:06;;;;;;;1.27;1.27;;;;;;;;;;4956964;29;20266;-90
2023/01/08 06:28:47;;;;;;;6.33;1.20;;;;;;;;;;4954371;29;20251;-88
2023/01/08 06:31:22;;;;;;;0.93;0.93;;;;;;;;;;4949916;29;20231;-89
2023/01/08 06:33:53;;;;;;;1.47;1.47;;;;;;;;;;4945757;28;20213;-89
2023/01/08 06:36:20;;;;;;;1.20;0.80;;;;;;;;;;4948013;29;20230;-90
2023/01/08 06:38:48;;;;;;;0.70;0.70;;;;;;;;;;4954176;29;20206;-90
2023/01/08 06:41:19;;;;;;;1.30;1.30;;;;;;;;;;4957428;28;20210;-89
2023/01/08 06:43:47;;;;;;;0.93;0.93;;;;;;;;;;4961524;29;20623;-89
2023/01/08 06:46:18;;;;;;;0.83;0.60;;;;;;;;;;4959652;28;20225;-88
2023/01/08 06:49:09;;;;;;;2.03;1.93;;;;;;;;;;4961212;29;20231;-88
2023/01/08 06:52:01;;;;;;;0.80;0.80;;;;;;;;;;4951374;28;20237;-89
2023/01/08 06:54:32;;;;;;;1.33;1.23;;;;;;;;;;4951818;29;20366;-87
2023/01/08 06:57:01;;;;;;;1.30;1.30;;;;;;;;;;4964806;29;20215;-88
2023/01/08 06:59:35;;;;;;;1.03;1.03;;;;;;;;;;4958625;29;20199;-88
2023/01/08 07:02:09;;;;;;;3.33;2.23;;;;;;;;;;4951827;29;20209;-89
2023/01/08 07:04:43;;;;;;;1.47;1.37;;;;;;;;;;4950394;29;20210;-90
2023/01/08 07:07:26;;;;;;;3.83;2.07;;;;;;;;;;4961244;29;20244;-90
2023/01/08 07:10:00;;;;;;;2.63;2.13;;;;;;;;;;4959875;29;20215;-89
2023/01/08 07:12:32;;;;;;;1.83;1.50;;;;;;;;;;4961389;29;20258;-89
2023/01/08 07:15:08;;;;;;;1.57;1.40;;;;;;;;;;4963178;29;20210;-87
2023/01/08 07:17:40;;;;;;;2.20;1.23;;;;;;;;;;4966220;29;20210;-89
2023/01/08 07:20:21;;;;;;;2.00;1.43;;;;;;;;;;4969139;29;20207;-91
2023/01/08 07:23:10;;;;;;;1.47;1.47;;;;;;;;;;4973554;28;20246;-89
2023/01/08 07:25:43;;;;;;;2.07;1.97;;;;;;;;;;4975553;29;20207;-90
2023/01/08 07:28:19;;;;;;;2.40;1.80;;;;;;;;;;4970514;29;20212;-90
2023/01/08 07:30:48;;;;;;;1.90;1.37;;;;;;;;;;4964712;29;20210;-91
2023/01/08 07:33:43;;;;;;;2.03;1.90;;;;;;;;;;4960368;29;20210;-89
2023/01/08 07:36:26;;;;;;;4.70;2.37;;;;;;;;;;4941682;29;20246;-88
2023/01/08 07:39:03;;;;;;;2.23;2.03;;;;;;;;;;4941521;29;20204;-90
2023/01/08 07:41:33;;;;;;;4.93;3.20;;;;;;;;;;4941932;29;20217;-91
2023/01/08 07:44:01;;;;;;;6.40;1.73;;;;;;;;;;4939582;29;20267;-91
2023/01/08 07:46:31;;;;;;;3.43;2.13;;;;;;;;;;4939796;29;20246;-89
2023/01/08 07:48:58;;;;;;;1.93;1.77;;;;;;;;;;4959737;29;20264;-89
2023/01/08 07:51:26;;;;;;;2.23;1.73;;;;;;;;;;4960192;28;20203;-89
2023/01/08 07:53:58;;;;;;;1.23;1.23;;;;;;;;;;4958051;29;20198;-90
2023/01/08 07:56:26;;;;;;;5.10;1.40;;;;;;;;;;4956142;29;20213;-89
2023/01/08 07:58:55;;;;;;;2.07;1.93;;;;;;;;;;4956718;29;20241;-91
2023/01/08 08:01:26;;;;;;;3.23;2.43;;;;;;;;;;4958225;29;20206;-91
2023/01/08 08:04:04;;;;;;;0.97;0.97;;;;;;;;;;4948063;29;20295;-90
2023/01/08 08:06:33;;;;;;;4.90;1.40;;;;;;;;;;4953258;29;20255;-90
2023/01/08 08:09:10;;;;;;;2.40;2.30;;;;;;;;;;4955898;29;20226;-91
2023/01/08 08:11:38;;;;;;;0.90;0.90;;;;;;;;;;4946293;29;20725;-89
2023/01/08 08:14:27;;;;;;;3.23;2.43;;;;;;;;;;4960096;29;20229;-91
2023/01/08 08:16:58;;;;;;;1.67;1.60;;;;;;;;;;4965864;29;20229;-92
2023/01/08 08:19:26;;;;;;;3.03;1.97;;;;;;;;;;4959709;29;20225;-89
2023/01/08 08:21:54;;;;;;;7.03;2.80;;;;;;;;;;4960769;29;20256;-89
2023/01/08 08:24:23;;;;;;;1.70;1.30;;;;;;;;;;4958614;29;20245;-88
2023/01/08 08:27:00;;;;;;;2.37;2.27;;;;;;;;;;4961765;29;20248;-89
2023/01/08 08:29:42;;;;;;;;;;;;;;;;;;;;;
2023/01/08 08:32:10;;;;;;;2.40;2.23;;;;;;;;;;4958697;29;20237;-89
2023/01/08 08:34:38;;;;;;;1.93;1.53;;;;;;;;;;4959617;29;20229;-90
2023/01/08 08:37:06;;;;;;;4.53;3.10;;;;;;;;;;4958070;29;20228;-90
2023/01/08 08:39:45;;;;;;;3.67;2.67;;;;;;;;;;4959527;29;20313;-89
2023/01/08 08:42:16;;;;;;;0.83;0.83;;;;;;;;;;4959785;29;20230;-90
2023/01/08 08:45:01;;;;;;;1.53;1.53;;;;;;;;;;4959550;29;20223;-89
2023/01/08 08:47:31;;;;;;;1.77;1.67;;;;;;;;;;4958770;29;20314;-90
2023/01/08 08:50:06;;;;;;;1.53;1.40;;;;;;;;;;4956465;29;20242;-89
2023/01/08 08:52:36;;;;;;;0.87;0.87;;;;;;;;;;4956808;29;20228;-90
2023/01/08 08:55:22;;;;;;;1.70;1.43;;;;;;;;;;4952440;29;20292;-90
2023/01/08 08:57:51;;;;;;;1.53;1.43;;;;;;;;;;4955179;29;20216;-91
2023/01/08 09:00:19;;;;;;;1.80;1.67;;;;;;;;;;4955695;29;20284;-90
2023/01/08 09:02:49;;;;;;;3.40;1.93;;;;;;;;;;4956068;28;20226;-90
2023/01/08 09:05:17;;;;;;;1.87;1.77;;;;;;;;;;4955330;29;20586;-90
2023/01/08 09:07:47;;;;;;;3.53;1.90;;;;;;;;;;4956103;29;20933;-89
2023/01/08 09:10:22;;;;;;;1.80;1.33;;;;;;;;;;4953807;29;20230;-90
2023/01/08 09:13:03;;;;;;;3.60;2.47;;;;;;;;;;4967864;29;20237;-89
2023/01/08 09:18:52;;;;;;;1.43;1.43;;;;;;;;;;4968436;28;20222;-91
2023/01/08 10:06:39;;;;;;;0.90;0.90;;;;;;;;;;4953839;23;20301;-90
2023/01/08 10:21:18;;;;;;;1.23;0.90;;;;;;;;;;5159298;23;20243;-88
2023/01/08 10:46:54;;;;;;;1.03;0.93;;;;;;;;;;5218566;23;20232;-94
2023/01/08 10:49:31;;;;;;;1.77;1.67;;;;;;;;;;4945946;29;20233;-91
2023/01/08 10:52:00;;;;;;;1.50;1.40;;;;;;;;;;4942062;29;20326;-90
2023/01/08 10:54:32;;;;;;;7.33;1.70;;;;;;;;;;4955034;28;20319;-91
2023/01/08 10:57:00;;;;;;;2.53;1.80;;;;;;;;;;4954900;28;20303;-90
2023/01/08 10:59:27;;;;;;;2.03;1.93;;;;;;;;;;4953908;29;20212;-91
2023/01/08 11:02:00;;;;;;;11.23;2.17;;;;;;;;;;4956696;29;20203;-89
2023/01/08 11:04:31;;;;;;;2.67;1.30;;;;;;;;;;4954795;29;20260;-90
2023/01/08 11:07:00;;;;;;;1.87;1.77;;;;;;;;;;4955522;29;20232;-90
2023/01/08 11:09:34;;;;;;;3.67;2.80;;;;;;;;;;4947735;29;20225;-88
2023/01/08 11:12:02;;;;;;;6.00;3.00;;;;;;;;;;4935211;29;20205;-91
2023/01/08 11:14:30;;;;;;;3.20;2.33;;;;;;;;;;4934094;29;20641;-91
2023/01/08 11:17:01;;;;;;;1.77;1.77;;;;;;;;;;4936865;29;20211;-90
2023/01/08 11:19:31;;;;;;;1.73;1.60;;;;;;;;;;4923517;29;20238;-88
2023/01/08 11:22:04;;;;;;;1.93;1.73;;;;;;;;;;4924437;29;20208;-89
2023/01/08 11:24:35;;;;;;;7.30;1.80;;;;;;;;;;4925495;29;20211;-89
2023/01/08 11:27:08;;;;;;;2.77;2.03;;;;;;;;;;4926228;29;20233;-88
2023/01/08 11:29:40;;;;;;;7.37;2.70;;;;;;;;;;4920673;29;20235;-90
2023/01/08 11:32:30;;;;;;;2.00;2.00;;;;;;;;;;4920200;29;20203;-91
2023/01/08 11:35:09;;;;;;;1.70;1.40;;;;;;;;;;4924842;29;20220;-91
2023/01/08 11:37:41;;;;;;;2.07;1.97;;;;;;;;;;4937012;29;20206;-89
2023/01/08 11:40:15;;;;;;;3.97;2.20;;;;;;;;;;4939990;29;20227;-92
2023/01/08 11:42:50;;;;;;;3.80;1.97;;;;;;;;;;4948857;29;20204;-90
2023/01/08 11:45:25;;;;;;;2.30;1.63;;;;;;;;;;4943314;29;20206;-88
2023/01/08 11:48:00;;;;;;;2.50;2.40;;;;;;;;;;4947832;29;20306;-89
2023/01/08 11:50:38;;;;;;;2.63;2.53;;;;;;;;;;4949350;29;20230;-90
2023/01/08 11:53:15;;;;;;;3.10;1.63;;;;;;;;;;4948612;29;20214;-89
2023/01/08 11:55:50;;;;;;;2.63;2.43;;;;;;;;;;4934274;29;20219;-92
2023/01/08 11:58:34;;;;;;;1.90;1.80;;;;;;;;;;4938773;29;20211;-92
2023/01/08 12:01:11;;;;;;;1.63;1.00;;;;;;;;;;4936456;29;20223;-93
2023/01/08 12:03:42;;;;;;;4.90;2.73;;;;;;;;;;4935063;29;20203;-92
2023/01/08 12:06:24;;;;;;;2.47;1.73;;;;;;;;;;4935392;29;20192;-92
2023/01/08 12:08:55;;;;;;;1.80;1.70;;;;;;;;;;4937486;29;20232;-92
2023/01/08 12:11:25;;;;;;;4.50;3.10;;;;;;;;;;4936123;29;20205;-84
2023/01/08 12:14:00;;;;;;;2.57;2.37;;;;;;;;;;4934889;29;20203;-82
2023/01/08 12:16:38;;;;;;;2.00;1.80;;;;;;;;;;4934961;29;20232;-84
2023/01/08 12:19:16;;;;;;;1.33;1.33;;;;;;;;;;4935650;29;20642;-84
2023/01/08 12:21:49;;;;;;;4.23;1.83;;;;;;;;;;4916864;29;20804;-85
2023/01/08 12:24:22;;;;;;;3.23;2.67;;;;;;;;;;4928558;29;20215;-86
2023/01/08 12:26:53;;;;;;;2.63;2.03;;;;;;;;;;4943775;29;20199;-84
2023/01/08 12:29:30;;;;;;;2.10;1.40;;;;;;;;;;4944301;29;20205;-83
2023/01/08 12:32:15;;;;;;;2.03;1.93;;;;;;;;;;4942039;29;20203;-86
2023/01/08 12:34:46;;;;;;;4.57;1.30;;;;;;;;;;4934840;29;20203;-86
2023/01/08 12:37:17;;;;;;;2.17;2.07;;;;;;;;;;4943281;28;20404;-86
2023/01/08 12:39:47;;;;;;;4.20;2.37;;;;;;;;;;4950975;29;20277;-84
2023/01/08 12:42:16;;;;;;;4.60;1.93;;;;;;;;;;4955422;29;20663;-84
2023/01/08 12:44:45;;;;;;;3.03;2.83;;;;;;;;;;4953367;29;20220;-85
2023/01/08 12:47:15;;;;;;;2.77;2.13;;;;;;;;;;4953581;29;20686;-85
2023/01/08 12:49:45;;;;;;;1.57;1.47;;;;;;;;;;4954390;29;20209;-83
2023/01/08 12:52:16;;;;;;;5.93;1.90;;;;;;;;;;4955194;29;20193;-85
2023/01/08 12:55:12;;;;;;;1.93;1.73;;;;;;;;;;4965888;29;20206;-84
2023/01/08 12:57:57;;;;;;;2.23;1.50;;;;;;;;;;4973356;29;20240;-84
2023/01/08 13:00:31;;;;;;;4.00;3.57;;;;;;;;;;4977144;29;20197;-84
2023/01/08 13:03:15;;;;;;;2.93;2.20;;;;;;;;;;4978020;29;20220;-85
2023/01/08 13:05:43;;;;;;;2.20;1.80;;;;;;;;;;4956913;29;20220;-83
2023/01/08 13:11:07;;;;;;;1.37;1.37;;;;;;;;;;4955942;28;20212;-83
2023/01/08 13:25:12;;;;;;;1.33;1.33;;;;;;;;;;4953223;29;20241;-84
2023/01/08 13:27:43;;;;;;;3.40;2.20;;;;;;;;;;4943315;29;20320;-82
2023/01/08 13:30:25;;;;;;;2.17;2.07;;;;;;;;;;4939347;29;20232;-85
2023/01/08 13:32:54;;;;;;;6.60;2.10;;;;;;;;;;4925707;29;20705;-84
2023/01/08 13:35:22;;;;;;;2.10;1.90;;;;;;;;;;4935331;29;20242;-84
2023/01/08 13:37:52;;;;;;;2.40;2.17;;;;;;;;;;4921369;29;20234;-83
2023/01/08 13:40:37;;;;;;;2.47;1.83;;;;;;;;;;4936504;29;20262;-84
2023/01/08 13:43:06;;;;;;;1.03;1.03;;;;;;;;;;4935730;29;20243;-84
2023/01/08 13:45:33;;;;;;;1.70;1.10;;;;;;;;;;4920859;28;20233;-83
2023/01/08 13:48:04;;;;;;;7.33;1.30;;;;;;;;;;4936021;29;20242;-84
2023/01/08 13:50:32;;;;;;;1.53;1.43;;;;;;;;;;4937133;29;20236;-82
2023/01/08 13:53:00;;;;;;;0.93;0.93;;;;;;;;;;4932279;29;20235;-84
2023/01/08 13:55:29;;;;;;;0.63;0.63;;;;;;;;;;4919817;29;20251;-84
2023/01/08 13:57:58;;;;;;;3.03;0.70;;;;;;;;;;4939151;29;20238;-85
2023/01/08 14:00:26;;;;;;;4.47;1.17;;;;;;;;;;4935897;29;20736;-84
2023/01/08 14:02:53;;;;;;;1.97;1.77;;;;;;;;;;4931498;29;20237;-84
2023/01/08 14:05:28;;;;;;;1.20;1.03;;;;;;;;;;4933617;29;20223;-85
2023/01/08 14:24:54;;;;;;;1.50;1.17;;;;;;;;;;4987299;23;20248;-82
2023/01/08 14:27:23;;;;;;;1.93;1.47;;;;;;;;;;4965492;28;20221;-84
2023/01/08 14:35:33;;;;;;;2.20;2.10;;;;;;;;;;4972928;28;20258;-86
2023/01/08 14:38:17;;;;;;;1.37;0.80;;;;;;;;;;4967104;28;20229;-85
2023/01/08 14:40:53;;;;;;;2.20;1.07;;;;;;;;;;4977089;28;20229;-82
2023/01/08 14:43:26;;;;;;;1.43;0.93;;;;;;;;;;4996120;28;20217;-82
2023/01/08 14:45:58;;;;;;;1.03;1.03;;;;;;;;;;4992118;28;20238;-83
2023/01/08 14:48:30;;;;;;;0.43;0.43;;;;;;;;;;4990733;28;20234;-85
2023/01/08 14:51:07;;;;;;;0.73;0.73;;;;;;;;;;4992353;28;22369;-84
2023/01/08 14:56:26;;;;;;;1.10;1.10;;;;;;;;;;4993372;28;20217;-84
2023/01/08 14:59:02;;;;;;;1.50;1.50;;;;;;;;;;4989106;28;20472;-84
2023/01/08 15:01:42;;;;;;;1.43;1.17;;;;;;;;;;4977189;28;20230;-84
2023/01/08 15:04:32;;;;;;;1.77;1.67;;;;;;;;;;4976015;28;20222;-84
2023/01/08 15:07:12;;;;;;;3.93;1.23;;;;;;;;;;4980973;28;20214;-84
2023/01/08 15:17:53;;;;;;;0.80;0.80;;;;;;;;;;4975917;28;20235;-85
2023/01/08 15:20:21;;;;;;;1.53;1.43;;;;;;;;;;4971708;28;20218;-83
2023/01/08 15:22:49;;;;;;;0.67;0.67;;;;;;;;;;4956056;28;20222;-85
2023/01/08 15:25:19;;;;;;;5.67;1.57;;;;;;;;;;4955956;28;20230;-83
2023/01/08 15:27:51;;;;;;;3.23;3.03;;;;;;;;;;4961768;28;20234;-84
2023/01/08 15:30:26;;;;;;;3.83;3.63;;;;;;;;;;4938958;28;20309;-85
2023/01/08 15:32:53;;;;;;;1.43;1.43;;;;;;;;;;4934076;29;20222;-83
2023/01/08 15:35:24;;;;;;;3.00;2.80;;;;;;;;;;4939408;29;20303;-85
2023/01/08 15:37:52;;;;;;;7.90;2.53;;;;;;;;;;4939948;29;20227;-86
2023/01/08 15:40:20;;;;;;;2.80;2.50;;;;;;;;;;4936066;29;20231;-84
2023/01/08 15:45:35;;;;;;;3.17;2.97;;;;;;;;;;4949388;29;20245;-91
2023/01/08 15:48:03;;;;;;;2.63;2.63;;;;;;;;;;4948276;29;20241;-89
2023/01/08 15:50:35;;;;;;;1.90;1.80;;;;;;;;;;4947360;29;20227;-91
2023/01/08 15:53:03;;;;;;;4.07;2.33;;;;;;;;;;4946537;29;20243;-93
2023/01/08 15:58:14;;;;;;;1.83;1.73;;;;;;;;;;4949059;29;20230;-90
2023/01/08 16:00:45;;;;;;;1.77;1.67;;;;;;;;;;4948693;29;20239;-92
2023/01/08 16:03:21;;;;;;;2.37;2.20;;;;;;;;;;4954298;29;20241;-90
2023/01/08 16:05:54;;;;;;;2.33;2.17;;;;;;;;;;4954550;29;20233;-91
2023/01/08 16:10:55;;;;;;;2.77;2.60;;;;;;;;;;4968412;28;20258;-89
2023/01/08 16:13:22;;;;;;;1.50;1.40;;;;;;;;;;5062070;23;21224;-91
2023/01/08 16:15:51;;;;;;;2.73;2.53;;;;;;;;;;4955581;28;20214;-88
2023/01/08 16:18:19;;;;;;;3.27;1.67;;;;;;;;;;5030197;23;20210;-89
2023/01/08 16:20:49;;;;;;;1.03;1.03;;;;;;;;;;4969500;28;20242;-89
2023/01/08 16:23:18;;;;;;;1.80;0.77;;;;;;;;;;5058466;23;20289;-90
2023/01/08 16:28:20;;;;;;;3.13;2.27;;;;;;;;;;5610209;23;20242;-92
2023/01/08 16:30:47;;;;;;;4.57;4.10;;;;;;;;;;4951060;29;20327;-90
2023/01/08 16:33:17;;;;;;;2.07;1.97;;;;;;;;;;4944777;29;20227;-90
2023/01/08 16:35:57;;;;;;;1.20;1.20;;;;;;;;;;4944736;29;20703;-91
2023/01/08 16:38:29;;;;;;;1.63;1.63;;;;;;;;;;4979252;28;20277;-92
2023/01/08 16:41:06;;;;;;;0.93;0.93;;;;;;;;;;4979354;28;20218;-91
2023/01/08 16:43:56;;;;;;;1.67;1.57;;;;;;;;;;5049759;23;20230;-91
2023/01/08 16:46:25;;;;;;;3.13;2.07;;;;;;;;;;4970500;28;20218;-91
2023/01/08 16:52:08;;;;;;;1.53;1.00;;;;;;;;;;5678222;23;20351;-93
2023/01/08 16:54:35;;;;;;;1.67;1.67;;;;;;;;;;4975025;28;20226;-90
2023/01/08 16:57:03;;;;;;;0.80;0.80;;;;;;;;;;4968848;28;20678;-92
2023/01/08 16:59:37;;;;;;;2.23;2.03;;;;;;;;;;4975596;28;20229;-91
2023/01/08 17:02:15;;;;;;;1.63;1.53;;;;;;;;;;4973740;28;20219;-92
2023/01/08 17:12:42;;;;;;;2.63;1.73;;;;;;;;;;5604864;23;20272;-90
2023/01/08 17:15:10;;;;;;;1.53;1.43;;;;;;;;;;5213425;23;20627;-91
2023/01/08 17:17:38;;;;;;;2.30;2.10;;;;;;;;;;4966454;28;20297;-91
2023/01/08 17:22:40;;;;;;;2.97;2.77;;;;;;;;;;5153784;23;20663;-91
2023/01/08 17:25:08;;;;;;;2.87;2.67;;;;;;;;;;4961956;28;20352;-92
2023/01/08 17:27:37;;;;;;;4.07;3.77;;;;;;;;;;4954986;28;20242;-89
2023/01/08 17:30:06;;;;;;;2.83;1.80;;;;;;;;;;4956540;28;20238;-90
2023/01/08 17:32:33;;;;;;;2.30;2.10;;;;;;;;;;4958685;28;20234;-91
2023/01/08 17:35:01;;;;;;;3.40;3.17;;;;;;;;;;4962590;28;20259;-92
2023/01/08 17:37:30;;;;;;;3.20;3.00;;;;;;;;;;4961392;29;20317;-91
2023/01/08 17:42:51;;;;;;;1.77;1.67;;;;;;;;;;5063258;23;20758;-93
2023/01/08 17:45:22;;;;;;;1.57;1.43;;;;;;;;;;4966288;28;20631;-91
2023/01/08 17:47:50;;;;;;;5.03;3.03;;;;;;;;;;4964051;28;20234;-92
2023/01/08 17:50:18;;;;;;;9.50;3.73;;;;;;;;;;4965351;28;20238;-91